This is the latest recevied weather packets stored in our database for station/object W6MAF. If no packets are shown the sender has not sent any weather packets the latest 1 day(s).
| Time | Temp. | Humidity | Pressure | Rain* | Wind** | Luminosity | Snow |
|---|---|---|---|---|---|---|---|
| 1778104113 | 23.89° C | 8% | - | 0 mm | 3.13 m/s, 15° | - | - |
| 1778103220 | 23.89° C | 8% | - | 0 mm | 4.02 m/s, 49° | - | - |
| 1778102026 | 23.33° C | 9% | - | 0 mm | 3.58 m/s, 73° | - | - |
| 1778101134 | 23.33° C | 9% | - | 0 mm | 2.68 m/s, 42° | - | - |
| 1778100836 | 23.33° C | 9% | - | 0 mm | 5.36 m/s, 45° | - | - |
| 1778100237 | 23.33° C | 9% | - | 0 mm | 4.47 m/s, 18° | - | - |
| 1778099939 | 23.33° C | 9% | - | 0 mm | 2.24 m/s, 86° | - | - |
| 1778099344 | 22.78° C | 9% | - | 0 mm | 5.36 m/s, 55° | - | - |
| 1778097257 | 22.78° C | 9% | - | 0 mm | 2.24 m/s, 7° | - | - |
| 1778094870 | 21.11° C | 13% | - | 0 mm | 4.47 m/s, 347° | - | - |
| 1778094572 | 21.11° C | 13% | - | 0 mm | 5.36 m/s, 7° | - | - |
| 1778093081 | 20.56° C | 15% | - | 0 mm | 4.47 m/s, 345° | - | - |
| 1778092783 | 20.56° C | 15% | - | 0 mm | 3.58 m/s, 332° | - | - |
| 1778091589 | 20° C | 15% | - | 0 mm | 4.02 m/s, 10° | - | - |
| 1778090994 | 20° C | 16% | - | 0 mm | 4.02 m/s, 21° | - | - |
| 1778090101 | 19.44° C | 18% | - | 0 mm | 4.02 m/s, 311° | - | - |
| 1778089205 | 18.89° C | 20% | - | 0 mm | 4.02 m/s, 339° | - | - |
| 1778087714 | 18.33° C | 24% | - | 0 mm | 4.02 m/s, 336° | - | - |
| 1778087416 | 18.33° C | 23% | - | 0 mm | 4.47 m/s, 6° | - | - |
| 1778086523 | 17.22° C | 27% | - | 0 mm | 2.24 m/s, 30° | - | - |
| 1778086222 | 16.67° C | 29% | - | 0 mm | 2.68 m/s, 333° | - | - |
| 1778085627 | 16.11° C | 31% | - | 0 mm | 2.68 m/s, 338° | - | - |
| 1778084433 | 15.56° C | 34% | - | 0 mm | 2.24 m/s, 359° | - | - |
| 1778083838 | 15° C | 36% | - | 0 mm | 0 m/s | - | - |
| 1778082945 | 14.44° C | 38% | - | 0 mm | 0 m/s | - | - |
* Rain latest hour (hover to see other rain measurements)
** Current wind speed in m/s (hover to see current wind gust speed)